• Join FlightAware (Why Join?)
  • Login
  • US Flag 
10:11PM EDT


 

Airport Tracker/Info


-or-


 

Live Flight TrackerFlight Track Log ✈ N6711L ✈ 12-May-2014 ✈ KEYW - KAPF

Flight Track Log - Related Links

Times and Time Zones

All times are in EDT time to prevent confusion due to time zone crossing. See the N6711L flight status page for this flight to view local times or setup timezone preferences in your user account.

Time Position Orientation Groundspeed Altitude Reporting Facility
EDT Latitude Longitude Course Direction KTS MPH feet Rate Location/Type
05:13PM 24.6119 -81.7522 North 117 135 2,000  Level Miami Center
05:14PM 24.6447 -81.7433 14° North 117 135 2,800 720 Climbing Miami Center
05:15PM 24.6803 -81.7358 11° North 122 140 3,500 780 Climbing Miami Center
05:16PM 24.7147 -81.7264 14° North 125 144 4,400 840 Climbing Miami Center
05:18PM 24.7508 -81.7172 13° North 126 145 5,300 780 Climbing Miami Center
05:19PM 24.8092 -81.7500 North  Level FlightAware Approximate
05:19PM 24.7864 -81.7078 14° North 127 146 6,100  Level Miami Center
05:20PM 24.8325 -81.6956 14° North 138 159 6,500 240 Climbing Miami Center
05:21PM 24.8767 -81.6831 14° North 156 180 6,600  Climbing Miami Center
05:22PM 24.9225 -81.6703 14° North 164 189 6,600  Level Miami Center
05:23PM 24.9689 -81.6581 13° North 166 191 6,600  Level Miami Center
05:24PM 25.0156 -81.6447 15° North 169 194 6,600  Level Miami Center
05:25PM 25.0631 -81.6325 13° North 170 196 6,600  Level Miami Center
05:26PM 25.1097 -81.6197 14° North 171 197 6,600  Level Miami Center
05:27PM 25.1672 -81.6161 North 171 197 6,600  Level Miami Center
05:28PM 25.2164 -81.6128 North 172 198 6,600  Level Miami Center
05:29PM 25.2656 -81.6103 North 174 200 6,600  Level Miami Center
05:30PM 25.3147 -81.6072 North 175 201 6,600  Level Miami Center
05:31PM 25.3664 -81.6064 North 175 201 6,600  Level Miami Center
05:32PM 25.4108 -81.6200 345° North 175 201 6,600  Level Miami Center
05:33PM 25.4600 -81.6289 351° North 176 203 6,600 -300 Level Miami Center
05:34PM 25.5181 -81.6422 348° North 176 203 6,100 -360 Descending Miami Center
05:35PM 25.5694 -81.6533 349° North 184 212 5,900 -240 Descending Miami Center
05:36PM 25.6208 -81.6625 351° North 181 208 5,700 -300 Descending Miami Center
05:37PM 25.6658 -81.6731 348° North 180 207 5,400 -360 Descending Miami Center
05:38PM 25.7236 -81.6856 349° North 180 207 5,000 -480 Descending Miami Center
05:39PM 25.7725 -81.6947 350° North 179 206 4,500 -480 Descending Miami Center
05:40PM 25.8272 -81.7069 349° North 186 214 4,100 -480 Descending Miami Center
05:41PM 25.8789 -81.7172 350° North 189 217 3,600 -540 Descending Miami Center
05:42PM 25.9325 -81.7286 349° North 188 216 3,000 -540 Descending Miami Center
05:43PM 25.9822 -81.7397 349° North 187 215 2,500 -540 Descending Miami Center
05:44PM 26.0336 -81.7661 335° Northwest 190 219 2,000 -420 Descending Miami Center
05:45PM 26.0806 -81.7917 334° Northwest 190 219 1,700 -480 Descending Miami Center
05:46PM 26.1231 -81.8022 347° North 145 167 1,100 -720 Descending Miami Center
05:47PM 26.1461 -81.7867 31° Northeast 122 140 300 -840 Descending Miami Center